createdAt,value
2018-04-13T00:01:52.579Z,38.00
2018-04-13T00:04:25.956Z,40.00
2018-04-13T00:06:58.600Z,33.23
2018-04-13T00:09:31.205Z,41.80
2018-04-13T00:12:03.852Z,35.47
2018-04-13T00:14:36.456Z,43.43
2018-04-13T00:17:09.871Z,38.30
2018-04-13T00:19:43.284Z,38.00
2018-04-13T00:22:15.917Z,34.53
2018-04-13T00:24:48.537Z,41.97
2018-04-13T00:27:21.960Z,37.50
2018-04-13T00:29:55.336Z,36.20
2018-04-13T00:32:27.981Z,40.30
2018-04-13T00:35:00.586Z,40.17
2018-04-13T00:37:33.238Z,34.93
2018-04-13T00:40:05.855Z,36.93
2018-04-13T00:42:38.495Z,37.70
2018-04-13T00:45:11.103Z,46.37
2018-04-13T00:47:43.752Z,41.50
2018-04-13T00:50:16.355Z,36.63
2018-04-13T00:53:00.848Z,41.40
2018-04-13T00:55:33.453Z,42.33
2018-04-13T00:58:06.104Z,40.57
2018-04-13T01:00:38.708Z,42.60
2018-04-13T01:03:11.334Z,40.73
2018-04-13T01:05:43.940Z,44.43
2018-04-13T01:08:17.348Z,38.57
2018-04-13T01:10:50.725Z,39.77
2018-04-13T01:13:23.428Z,40.47
2018-04-13T01:15:56.203Z,40.03
2018-04-13T01:21:38.874Z,39.37
2018-04-13T01:24:12.387Z,44.97
2018-04-13T01:26:44.996Z,50.47
2018-04-13T01:29:17.632Z,41.53
2018-04-13T01:31:50.245Z,39.73
2018-04-13T01:34:22.881Z,41.50
2018-04-13T01:36:56.256Z,39.07
2018-04-13T01:39:28.885Z,42.37
2018-04-13T01:42:02.269Z,38.73
2018-04-13T01:44:34.896Z,42.73
2018-04-13T01:47:08.280Z,39.33
2018-04-13T01:49:40.923Z,45.57
2018-04-13T01:52:13.531Z,43.00
2018-04-13T01:54:46.180Z,41.83
2018-04-13T01:57:19.551Z,40.30
2018-04-13T01:59:52.175Z,41.23
2018-04-13T02:02:25.551Z,41.67
2018-04-13T02:04:58.205Z,44.27
2018-04-13T02:07:30.816Z,42.07
2018-04-13T02:10:03.473Z,43.70
2018-04-13T02:12:36.232Z,41.17
2018-04-13T02:15:09.749Z,41.97
2018-04-13T02:17:43.187Z,40.60
2018-04-13T02:20:15.830Z,40.80
2018-04-13T02:22:48.435Z,40.00
2018-04-13T02:25:21.079Z,49.57
2018-04-13T02:27:53.679Z,40.47
2018-04-13T02:30:26.308Z,44.40
2018-04-13T02:32:58.929Z,45.30
2018-04-13T02:35:32.320Z,43.77
2018-04-13T02:38:04.925Z,40.20
2018-04-13T02:40:38.339Z,43.47
2018-04-13T02:43:11.708Z,46.70
2018-04-13T02:45:44.354Z,38.30
2018-04-13T02:48:16.960Z,43.50
2018-04-13T02:50:49.588Z,40.73
2018-04-13T02:53:22.188Z,41.57
2018-04-13T02:55:54.832Z,45.70
2018-04-13T02:58:27.436Z,45.30
2018-04-13T03:01:00.082Z,45.70
2018-04-13T03:03:33.450Z,41.17
2018-04-13T03:06:06.103Z,42.23
2018-04-13T03:08:38.705Z,43.77
2018-04-13T03:11:11.351Z,44.60
2018-04-13T03:13:43.956Z,40.73
2018-04-13T03:16:17.368Z,42.43
2018-04-13T03:18:50.756Z,46.20
2018-04-13T03:21:23.384Z,40.37
2018-04-13T03:23:55.992Z,41.80
2018-04-13T03:26:28.643Z,43.70
2018-04-13T03:29:01.249Z,40.57
2018-04-13T03:31:34.662Z,43.73
2018-04-13T03:34:08.028Z,42.10
2018-04-13T03:36:40.652Z,44.00
2018-04-13T03:39:14.021Z,40.90
2018-04-13T03:41:46.648Z,45.43
2018-04-13T03:44:19.255Z,49.30
2018-04-13T03:46:52.647Z,40.27
2018-04-13T03:49:25.272Z,41.00
2018-04-13T03:51:57.892Z,41.20
2018-04-13T03:54:30.518Z,45.07
2018-04-13T03:57:03.919Z,41.97
2018-04-13T03:59:36.523Z,43.53
2018-04-13T04:02:09.188Z,40.73
2018-04-13T04:04:41.763Z,42.47
2018-04-13T04:07:14.391Z,41.57
2018-04-13T04:09:46.997Z,47.00
2018-04-13T04:12:19.620Z,40.70
2018-04-13T04:14:52.218Z,41.60
2018-04-13T04:17:24.846Z,42.50
2018-04-13T04:20:09.457Z,43.63
2018-04-13T04:22:53.919Z,39.70
2018-04-13T04:25:39.190Z,42.73
2018-04-13T04:28:11.820Z,44.57
2018-04-13T04:30:44.439Z,41.40
2018-04-13T04:33:17.087Z,47.60
2018-04-13T04:35:50.742Z,48.43
2018-04-13T04:38:45.920Z,38.40
2018-04-13T04:41:19.300Z,43.27
2018-04-13T04:43:51.925Z,39.27
2018-04-13T04:46:25.296Z,39.50
2018-04-13T04:48:57.949Z,53.80
2018-04-13T04:51:31.323Z,42.53
2018-04-13T04:54:04.735Z,37.70
2018-04-13T04:56:38.104Z,37.13
2018-04-13T04:59:10.747Z,43.20
2018-04-13T05:01:43.383Z,45.87
2018-04-13T05:04:18.226Z,42.50
2018-04-13T05:06:50.828Z,40.97
2018-04-13T05:09:23.549Z,44.90
2018-04-13T05:11:56.177Z,41.97
2018-04-13T05:14:28.805Z,43.33
2018-04-13T05:17:01.430Z,42.90
2018-04-13T05:19:35.515Z,40.83
2018-04-13T05:22:08.961Z,38.77
2018-04-13T05:24:42.813Z,39.70
2018-04-13T05:27:15.445Z,40.33
2018-04-13T05:29:48.108Z,35.57
2018-04-13T05:32:20.898Z,40.30
2018-04-13T05:34:56.624Z,37.87
2018-04-13T05:37:30.152Z,38.93
2018-04-13T05:40:03.552Z,39.70
2018-04-13T05:42:36.920Z,38.90
2018-04-13T05:45:09.561Z,36.10
2018-04-13T05:47:42.179Z,37.73
2018-04-13T05:50:14.872Z,37.90
2018-04-13T05:52:47.491Z,36.13
2018-04-13T05:55:20.144Z,39.67
2018-04-13T05:57:52.748Z,36.23
2018-04-13T06:00:25.424Z,33.00
2018-04-13T06:02:58.027Z,30.60
2018-04-13T06:05:30.673Z,35.43
2018-04-13T06:08:03.288Z,35.77
2018-04-13T06:10:36.700Z,36.60
2018-04-13T06:13:10.075Z,30.30
2018-04-13T06:15:42.751Z,30.20
2018-04-13T06:18:15.372Z,29.50
2018-04-13T06:20:48.020Z,28.93
2018-04-13T06:23:20.632Z,28.77
2018-04-13T06:25:53.259Z,31.77
2018-04-13T06:28:26.640Z,27.90
2018-04-13T06:30:59.292Z,38.50
2018-04-13T06:33:31.899Z,30.17
2018-04-13T06:36:04.528Z,34.67
2018-04-13T06:38:37.132Z,34.77
2018-04-13T06:41:10.548Z,36.80
2018-04-13T06:43:43.993Z,31.03
2018-04-13T06:46:17.371Z,36.07
2018-04-13T06:48:50.834Z,29.67
2018-04-13T06:51:24.173Z,34.47
2018-04-13T06:53:56.776Z,31.50
2018-04-13T06:56:30.200Z,32.10
2018-04-13T06:59:02.818Z,33.93
2018-04-13T07:01:35.453Z,35.43
2018-04-13T07:04:08.060Z,29.03
2018-04-13T07:06:41.477Z,35.03
2018-04-13T07:09:14.100Z,31.67
2018-04-13T07:11:46.752Z,31.20
2018-04-13T07:14:20.140Z,32.13
2018-04-13T07:16:52.835Z,29.13
2018-04-13T07:19:25.448Z,32.83
2018-04-13T07:21:58.863Z,32.80
2018-04-13T07:24:32.245Z,28.07
2018-04-13T07:27:04.895Z,27.60
2018-04-13T07:29:37.505Z,24.73
2018-04-13T07:32:10.162Z,26.13
2018-04-13T07:34:42.780Z,26.33
2018-04-13T07:37:15.785Z,31.20
2018-04-13T07:39:48.803Z,31.53
2018-04-13T07:42:21.444Z,29.57
2018-04-13T07:44:54.121Z,32.50
2018-04-13T07:47:26.727Z,31.90
2018-04-13T07:49:59.570Z,30.20
2018-04-13T07:52:32.023Z,34.00
2018-04-13T07:55:04.638Z,34.80
2018-04-13T07:57:37.291Z,36.57
2018-04-13T08:00:09.908Z,33.60
2018-04-13T08:02:42.562Z,40.17
2018-04-13T08:05:15.204Z,33.00
2018-04-13T08:07:47.831Z,35.67
2018-04-13T08:10:20.440Z,33.93
2018-04-13T08:12:53.859Z,34.57
2018-04-13T08:15:26.801Z,34.17
2018-04-13T08:17:59.206Z,32.63
2018-04-13T08:20:31.779Z,37.20
2018-04-13T08:23:04.427Z,34.30
2018-04-13T08:25:37.065Z,32.67
2018-04-13T08:28:09.729Z,32.13
2018-04-13T08:30:42.380Z,31.20
2018-04-13T08:33:15.036Z,32.57
2018-04-13T08:35:47.655Z,33.00
2018-04-13T08:38:20.335Z,35.93
2018-04-13T08:40:52.931Z,31.00
2018-04-13T08:43:25.576Z,34.40
2018-04-13T08:45:58.189Z,37.27
2018-04-13T08:48:45.169Z,35.33
2018-04-13T08:51:17.666Z,32.43
2018-04-13T08:53:50.318Z,34.13
2018-04-13T08:56:22.940Z,36.77
2018-04-13T08:58:56.360Z,37.73
2018-04-13T09:01:29.739Z,37.30
2018-04-13T09:04:02.398Z,43.60
2018-04-13T09:06:35.034Z,37.40
2018-04-13T09:09:08.456Z,33.43
2018-04-13T09:11:41.841Z,36.67
2018-04-13T09:14:14.491Z,34.87
2018-04-13T09:16:47.117Z,36.07
2018-04-13T09:19:19.757Z,36.27
2018-04-13T09:21:52.366Z,32.90
2018-04-13T09:24:25.024Z,42.13
2018-04-13T09:26:58.408Z,36.53
2018-04-13T09:29:31.055Z,35.83
2018-04-13T09:32:03.676Z,38.17
2018-04-13T09:34:36.329Z,40.33
2018-04-13T09:37:08.939Z,35.17
2018-04-13T09:39:41.569Z,39.53
2018-04-13T09:42:14.203Z,34.37
2018-04-13T09:44:46.864Z,30.17
2018-04-13T09:47:19.476Z,35.87
2018-04-13T09:49:52.133Z,36.93
2018-04-13T09:52:24.745Z,35.27
2018-04-13T09:54:58.176Z,33.63
2018-04-13T09:57:30.805Z,34.43
2018-04-13T10:00:03.452Z,32.93
2018-04-13T10:02:38.021Z,35.93
2018-04-13T10:05:16.624Z,35.33
2018-04-13T10:07:49.234Z,33.97
2018-04-13T10:10:21.877Z,40.80
2018-04-13T10:12:54.492Z,37.00
2018-04-13T10:15:27.115Z,34.70
2018-04-13T10:17:59.724Z,36.03
2018-04-13T10:20:32.377Z,35.73
2018-04-13T10:23:05.008Z,31.17
2018-04-13T10:25:37.643Z,35.70
2018-04-13T10:28:11.012Z,30.97
2018-04-13T10:30:43.665Z,31.40
2018-04-13T10:33:16.271Z,29.97
2018-04-13T10:35:48.923Z,29.77
2018-04-13T10:38:22.298Z,31.03
2018-04-13T10:40:54.946Z,32.80
2018-04-13T10:43:27.553Z,32.67
2018-04-13T10:46:00.213Z,28.30
2018-04-13T10:48:33.595Z,31.50
2018-04-13T10:51:06.233Z,28.87
2018-04-13T10:53:38.839Z,31.20
2018-04-13T10:56:11.511Z,29.47
2018-04-13T10:58:44.130Z,26.47
2018-04-13T11:01:16.802Z,30.63
2018-04-13T11:03:49.413Z,30.83
2018-04-13T11:06:22.060Z,27.07
2018-04-13T11:08:55.437Z,27.60
2018-04-13T11:11:28.091Z,24.73
2018-04-13T11:14:00.736Z,25.43
2018-04-13T11:16:33.388Z,24.83
2018-04-13T11:19:06.000Z,27.07
2018-04-13T11:21:38.637Z,23.97
2018-04-13T11:24:12.008Z,22.53
2018-04-13T11:26:44.712Z,27.10
2018-04-13T11:29:17.343Z,34.97
2018-04-13T11:31:50.012Z,24.90
2018-04-13T11:34:23.384Z,31.00
2018-04-13T11:36:56.031Z,29.20
2018-04-13T11:39:28.636Z,35.50
2018-04-13T11:42:01.264Z,34.17
2018-04-13T11:44:33.872Z,31.40
2018-04-13T11:47:06.529Z,31.33
2018-04-13T11:49:39.132Z,32.63
2018-04-13T11:52:11.762Z,30.27
2018-04-13T11:54:45.153Z,31.93
2018-04-13T11:57:17.848Z,33.33
2018-04-13T11:59:51.251Z,32.53
2018-04-13T12:02:23.924Z,32.07
2018-04-13T12:04:56.511Z,27.77
2018-04-13T12:07:29.148Z,26.33
2018-04-13T12:10:02.523Z,32.23
2018-04-13T12:12:35.172Z,31.33
2018-04-13T12:15:07.776Z,31.33
2018-04-13T12:17:40.424Z,28.90
2018-04-13T12:20:13.030Z,28.60
2018-04-13T12:22:46.494Z,28.60
2018-04-13T12:25:19.121Z,25.87
2018-04-13T12:27:51.764Z,31.87
2018-04-13T12:30:24.372Z,25.03
2018-04-13T12:32:57.003Z,26.80
2018-04-13T12:35:30.377Z,23.13
2018-04-13T12:38:03.039Z,27.50
2018-04-13T12:40:35.647Z,26.10
2018-04-13T12:43:08.302Z,23.97
2018-04-13T12:45:40.920Z,24.03
2018-04-13T12:48:13.597Z,20.83
2018-04-13T12:50:46.226Z,20.17
2018-04-13T12:53:18.953Z,25.10
2018-04-13T12:55:51.540Z,21.07
2018-04-13T12:58:24.196Z,26.97
2018-04-13T13:00:56.825Z,20.83
2018-04-13T13:03:29.541Z,19.13
2018-04-13T13:06:02.171Z,17.37
2018-04-13T13:08:35.063Z,14.10
2018-04-13T13:11:07.725Z,16.40
2018-04-13T13:13:40.365Z,14.53
2018-04-13T13:16:12.999Z,15.10
2018-04-13T13:18:46.426Z,14.43
2018-04-13T13:21:19.044Z,16.17
2018-04-13T13:23:51.688Z,15.50
2018-04-13T13:26:24.323Z,13.53
2018-04-13T13:28:56.972Z,13.67
2018-04-13T13:31:30.349Z,17.03
2018-04-13T13:34:03.043Z,13.80
2018-04-13T13:36:35.681Z,11.97
2018-04-13T13:39:08.871Z,18.60
2018-04-13T13:41:42.272Z,14.90
2018-04-13T13:44:14.931Z,16.83
2018-04-13T13:46:47.552Z,11.33
2018-04-13T13:49:20.196Z,13.80
2018-04-13T13:51:52.831Z,10.63
2018-04-13T13:54:25.508Z,13.10
2018-04-13T13:56:58.108Z,11.73
2018-04-13T13:59:30.740Z,8.67
2018-04-13T14:02:04.116Z,13.90
2018-04-13T14:04:36.757Z,10.53
2018-04-13T14:07:09.366Z,11.57
2018-04-13T14:09:41.988Z,14.20
2018-04-13T14:12:14.588Z,8.90
2018-04-13T14:14:47.267Z,8.20
2018-04-13T14:17:19.876Z,9.67
2018-04-13T14:19:52.505Z,10.23
2018-04-13T14:22:25.107Z,9.90
2018-04-13T14:24:57.754Z,7.53
2018-04-13T14:27:30.368Z,11.80
2018-04-13T14:30:03.006Z,13.07
2018-04-13T14:32:35.615Z,8.03
2018-04-13T14:35:08.257Z,9.50
2018-04-13T14:37:40.857Z,8.93
2018-04-13T14:40:13.487Z,11.17
2018-04-13T14:42:46.096Z,11.87
2018-04-13T14:45:18.736Z,7.67
2018-04-13T14:47:58.412Z,11.90
2018-04-13T14:50:31.040Z,25.27
2018-04-13T14:53:04.452Z,69.17
2018-04-13T14:55:37.863Z,10.93
2018-04-13T14:58:11.233Z,12.77
2018-04-13T15:00:43.947Z,12.63
2018-04-13T15:03:17.352Z,11.93
2018-04-13T15:05:49.976Z,8.77
2018-04-13T15:08:23.387Z,9.07
2018-04-13T15:10:56.044Z,12.17
2018-04-13T15:13:29.641Z,12.30
2018-04-13T15:16:02.339Z,11.93
2018-04-13T15:18:37.964Z,12.57
2018-04-13T15:21:11.475Z,10.10
2018-04-13T15:23:44.083Z,14.63
2018-04-13T15:26:16.732Z,10.60
2018-04-13T15:28:50.130Z,12.70
2018-04-13T15:31:22.779Z,11.47
2018-04-13T15:33:55.383Z,8.83
2018-04-13T15:36:28.008Z,8.77
2018-04-13T15:39:00.628Z,13.17
2018-04-13T15:41:33.260Z,10.10
2018-04-13T15:44:05.888Z,11.83
2018-04-13T15:46:39.304Z,12.80
2018-04-13T15:49:12.671Z,13.43
2018-04-13T15:51:45.328Z,13.10
2018-04-13T15:54:17.954Z,10.93
2018-04-13T15:56:50.598Z,17.97
2018-04-13T15:59:24.292Z,12.57
2018-04-13T16:01:56.917Z,9.63
2018-04-13T16:04:29.525Z,8.17
2018-04-13T16:07:02.964Z,11.77
2018-04-13T16:09:35.575Z,18.33
2018-04-13T16:12:08.274Z,8.80
2018-04-13T16:14:40.873Z,9.20
2018-04-13T16:17:14.280Z,12.67
2018-04-13T16:19:47.676Z,11.87
2018-04-13T16:22:20.302Z,13.47
2018-04-13T16:24:52.919Z,8.70
2018-04-13T16:27:25.546Z,10.33
2018-04-13T16:29:58.148Z,9.27
2018-04-13T16:32:30.784Z,11.63
2018-04-13T16:35:03.400Z,12.37
2018-04-13T16:37:36.048Z,11.33
2018-04-13T16:40:08.652Z,11.63
2018-04-13T16:42:41.311Z,17.90
2018-04-13T16:45:14.697Z,8.83
2018-04-13T16:47:47.370Z,19.60
2018-04-13T16:50:32.829Z,13.00
2018-04-13T16:53:05.494Z,11.03
2018-04-13T16:55:38.879Z,9.57
2018-04-13T16:58:11.512Z,7.97
2018-04-13T17:00:44.897Z,12.63
2018-04-13T17:03:17.555Z,8.07
2018-04-13T17:05:50.232Z,11.23
2018-04-13T17:08:22.921Z,14.03
2018-04-13T17:10:57.571Z,8.03
2018-04-13T17:13:32.107Z,14.83
2018-04-13T17:16:04.736Z,9.63
2018-04-13T17:18:37.412Z,9.63
2018-04-13T17:21:10.647Z,16.50
2018-04-13T17:23:43.400Z,13.87
2018-04-13T17:26:16.041Z,10.67
2018-04-13T17:28:49.465Z,8.47
2018-04-13T17:31:22.856Z,11.70
2018-04-13T17:33:55.479Z,15.53
2018-04-13T17:36:28.084Z,14.00
2018-04-13T17:39:00.748Z,9.63
2018-04-13T17:41:34.119Z,9.53
2018-04-13T17:44:06.749Z,10.70
2018-04-13T17:46:40.123Z,8.43
2018-04-13T17:49:12.790Z,11.90
2018-04-13T17:51:45.431Z,10.07
2018-04-13T17:54:18.073Z,8.83
2018-04-13T17:56:50.683Z,16.57
2018-04-13T17:59:23.312Z,13.20
2018-04-13T18:01:55.920Z,14.13
2018-04-13T18:04:28.656Z,11.10
2018-04-13T18:07:01.308Z,11.83
2018-04-13T18:09:34.006Z,8.53
2018-04-13T18:12:06.734Z,6.23
2018-04-13T18:14:39.389Z,9.17
2018-04-13T18:17:12.003Z,12.43
2018-04-13T18:19:44.677Z,7.53
2018-04-13T18:22:17.293Z,9.33
2018-04-13T18:24:50.072Z,9.57
2018-04-13T18:27:22.671Z,5.67
2018-04-13T18:29:55.348Z,10.50
2018-04-13T18:32:27.957Z,9.80
2018-04-13T18:35:00.653Z,14.10
2018-04-13T18:37:33.545Z,26.80
2018-04-13T18:43:04.036Z,13.37
2018-04-13T18:45:36.759Z,22.97
2018-04-13T18:48:09.371Z,11.97
2018-04-13T18:50:42.791Z,7.97
2018-04-13T18:53:16.160Z,8.13
2018-04-13T18:55:48.792Z,7.23
2018-04-13T18:58:22.179Z,9.30
2018-04-13T19:00:55.657Z,4.87
2018-04-13T19:03:28.321Z,3.63
2018-04-13T19:06:01.715Z,6.10
2018-04-13T19:08:34.328Z,3.97
2018-04-13T19:11:06.952Z,5.43
2018-04-13T19:13:39.596Z,6.07
2018-04-13T19:16:12.230Z,5.13
2018-04-13T19:18:44.840Z,6.00
2018-04-13T19:21:17.480Z,5.20
2018-04-13T19:23:50.086Z,5.13
2018-04-13T19:26:22.789Z,4.63
2018-04-13T19:28:55.400Z,7.83
2018-04-13T19:31:28.052Z,5.30
2018-04-13T19:34:00.656Z,5.60
2018-04-13T19:36:33.271Z,3.27
2018-04-13T19:39:05.871Z,4.43
2018-04-13T19:41:38.497Z,8.27
2018-04-13T19:44:12.004Z,87.87
2018-04-13T19:46:45.432Z,18.50
2018-04-13T19:49:18.037Z,9.10
2018-04-13T19:51:50.663Z,5.83
2018-04-13T19:54:26.871Z,5.00
2018-04-13T19:56:59.668Z,4.40
2018-04-13T19:59:33.069Z,5.60
2018-04-13T20:02:06.465Z,7.43
2018-04-13T20:04:39.081Z,12.13
2018-04-13T20:07:11.818Z,5.90
2018-04-13T20:09:44.485Z,4.33
2018-04-13T20:12:19.993Z,8.63
2018-04-13T20:14:52.591Z,8.10
2018-04-13T20:17:46.452Z,5.47
2018-04-13T20:20:19.056Z,7.27
2018-04-13T20:22:51.692Z,4.00
2018-04-13T20:25:25.059Z,6.13
2018-04-13T20:27:57.683Z,8.17
2018-04-13T20:30:31.089Z,4.80
2018-04-13T20:33:03.971Z,7.63
2018-04-13T20:35:48.264Z,7.00
2018-04-13T20:38:21.651Z,6.43
2018-04-13T20:40:54.244Z,6.33
2018-04-13T20:43:26.888Z,4.57
2018-04-13T20:45:59.503Z,5.83
2018-04-13T20:48:32.146Z,7.33
2018-04-13T20:51:05.516Z,10.73
2018-04-13T20:53:38.165Z,6.67
2018-04-13T20:56:10.773Z,7.63
2018-04-13T20:58:43.391Z,7.97
2018-04-13T21:01:16.016Z,6.87
2018-04-13T21:03:49.407Z,8.23
2018-04-13T21:06:22.007Z,8.13
2018-04-13T21:08:55.392Z,7.37
2018-04-13T21:11:28.007Z,7.93
2018-04-13T21:14:01.437Z,8.20
2018-04-13T21:16:34.039Z,8.57
2018-04-13T21:19:06.680Z,13.47
2018-04-13T21:21:39.295Z,8.33
2018-04-13T21:24:12.703Z,6.20
2018-04-13T21:26:45.304Z,6.50
2018-04-13T21:29:18.706Z,7.50
2018-04-13T21:31:52.091Z,3.90
2018-04-13T21:34:24.717Z,6.00
2018-04-13T21:36:58.096Z,6.57
2018-04-13T21:39:30.751Z,10.20
2018-04-13T21:42:03.358Z,3.87
2018-04-13T21:44:36.004Z,6.20
2018-04-13T21:47:08.603Z,4.40
2018-04-13T21:49:41.228Z,7.60
2018-04-13T21:52:13.840Z,9.03
2018-04-13T21:54:46.500Z,7.93
2018-04-13T21:57:19.112Z,7.17
2018-04-13T21:59:51.756Z,5.97
2018-04-13T22:02:24.363Z,5.60
2018-04-13T22:04:56.983Z,8.33
2018-04-13T22:07:29.590Z,7.27
2018-04-13T22:10:02.225Z,4.80
2018-04-13T22:12:46.797Z,7.03
2018-04-13T22:15:26.267Z,4.57
2018-04-13T22:17:58.872Z,7.73
2018-04-13T22:20:31.491Z,4.87
2018-04-13T22:23:04.096Z,5.50
2018-04-13T22:25:36.741Z,5.10
2018-04-13T22:28:09.353Z,5.40
2018-04-13T22:30:41.995Z,11.03
2018-04-13T22:33:14.616Z,7.73
2018-04-13T22:35:47.263Z,5.17
2018-04-13T22:38:20.635Z,7.93
2018-04-13T22:40:53.259Z,7.60
2018-04-13T22:43:26.627Z,8.70
2018-04-13T22:45:59.274Z,9.27
2018-04-13T22:48:32.644Z,7.17
2018-04-13T22:51:05.288Z,16.30
2018-04-13T22:53:37.893Z,8.03
2018-04-13T22:56:10.515Z,9.37
2018-04-13T22:58:43.117Z,7.77
2018-04-13T23:01:15.768Z,10.20
2018-04-13T23:03:48.372Z,9.33
2018-04-13T23:06:21.020Z,13.83
2018-04-13T23:08:54.400Z,10.63
2018-04-13T23:11:27.037Z,10.30
2018-04-13T23:13:59.647Z,10.43
2018-04-13T23:16:32.295Z,8.67
2018-04-13T23:19:05.713Z,12.53
2018-04-13T23:21:38.330Z,11.03
2018-04-13T23:24:10.967Z,11.93
2018-04-13T23:26:43.613Z,8.13
2018-04-13T23:29:16.211Z,9.67
2018-04-13T23:31:48.832Z,8.53
2018-04-13T23:34:21.436Z,11.03
2018-04-13T23:36:54.057Z,7.50
2018-04-13T23:39:27.587Z,11.20
2018-04-13T23:42:00.332Z,9.50
2018-04-13T23:44:32.937Z,9.23
2018-04-13T23:47:06.351Z,12.00
2018-04-13T23:49:39.719Z,8.53
2018-04-13T23:52:12.353Z,7.13
2018-04-13T23:54:45.731Z,7.50
2018-04-13T23:57:18.363Z,7.10
2018-04-13T23:59:51.753Z,7.30
